ADDS METAR Data INFO
IDs: Format: Raw Decoded Include TAF

Data at: 2010 UTC 22 Apr 2018

METAR for:KOSU (Columbus/Ohio State, OH, US)
Text:KOSU 221953Z 05010KT 10SM CLR 18/M03 A3024 RMK AO2 SLP242 T01781033
Temperature: 17.8°C ( 64°F)
Dewpoint: -3.3°C ( 26°F) [RH = 24%]
Pressure (altimeter):30.24 inches Hg (1024.1 mb) [Sea level pressure: 1024.2 mb]
Winds:from the NE (50 degrees) at 12 MPH (10 knots; 5.1 m/s)
Visibility:10 or more sm (16+ km)
Ceiling:at least 12,000 feet AGL
Clouds:sky clear below 12,000 feet AGL